createdAt,value
2022-08-23T00:02:29.017Z,101188.06
2022-08-23T00:05:09.368Z,101185.81
2022-08-23T00:07:40.569Z,101189.59
2022-08-23T00:10:09.727Z,101190.81
2022-08-23T00:12:38.121Z,101186.06
2022-08-23T00:15:07.538Z,101191.91
2022-08-23T00:17:36.535Z,101185.75
2022-08-23T00:20:05.168Z,101190.84
2022-08-23T00:22:32.892Z,101187.72
2022-08-23T00:25:01.942Z,101188.09
2022-08-23T00:27:29.897Z,101183.19
2022-08-23T00:29:58.596Z,101190.03
2022-08-23T00:32:28.532Z,101185.84
2022-08-23T00:34:56.427Z,101186.75
2022-08-23T00:37:24.805Z,101187.47
2022-08-23T00:39:52.741Z,101189.78
2022-08-23T00:42:48.879Z,101182.31
2022-08-23T00:45:37.452Z,101188.97
2022-08-23T00:48:06.940Z,101190.34
2022-08-23T00:50:39.527Z,101195.81
2022-08-23T00:53:11.996Z,101194.50
2022-08-23T00:55:42.736Z,101190.22
2022-08-23T00:58:12.616Z,101185.56
2022-08-23T01:00:40.467Z,101186.16
2022-08-23T01:03:11.160Z,101188.91
2022-08-23T01:05:46.127Z,101187.72
2022-08-23T01:08:13.828Z,101189.38
2022-08-23T01:10:44.297Z,101196.81
2022-08-23T01:13:19.464Z,101193.19
2022-08-23T01:15:49.664Z,101189.81
2022-08-23T01:18:20.515Z,101190.72
2022-08-23T01:20:52.375Z,101191.50
2022-08-23T01:23:29.153Z,101202.00
2022-08-23T01:25:58.185Z,101210.22
2022-08-23T01:28:25.989Z,101210.97
2022-08-23T01:30:53.869Z,101214.00
2022-08-23T01:33:22.200Z,101211.22
2022-08-23T01:35:52.816Z,101212.09
2022-08-23T01:38:20.848Z,101215.53
2022-08-23T01:40:50.205Z,101217.66
2022-08-23T01:43:19.754Z,101216.00
2022-08-23T01:45:47.937Z,101211.00
2022-08-23T01:48:16.562Z,101215.16
2022-08-23T01:50:45.164Z,101210.94
2022-08-23T01:53:13.213Z,101210.94
2022-08-23T01:55:42.198Z,101212.31
2022-08-23T01:58:11.351Z,101211.94
2022-08-23T02:00:41.365Z,101217.16
2022-08-23T02:03:10.920Z,101213.63
2022-08-23T02:05:40.279Z,101210.94
2022-08-23T02:08:26.636Z,101214.28
2022-08-23T02:10:54.841Z,101211.31
2022-08-23T02:13:24.284Z,101205.69
2022-08-23T02:15:52.417Z,101211.06
2022-08-23T02:18:21.803Z,101205.66
2022-08-23T02:20:51.363Z,101206.38
2022-08-23T02:23:20.264Z,101206.91
2022-08-23T02:25:48.109Z,101203.66
2022-08-23T02:28:15.857Z,101198.59
2022-08-23T02:30:46.569Z,101202.84
2022-08-23T02:33:15.888Z,101206.88
2022-08-23T02:35:45.117Z,101205.19
2022-08-23T02:38:13.649Z,101219.34
2022-08-23T02:40:42.284Z,101220.72
2022-08-23T02:43:11.331Z,101214.22
2022-08-23T02:45:42.232Z,101217.63
2022-08-23T02:48:13.389Z,101221.50
2022-08-23T02:50:43.523Z,101210.72
2022-08-23T02:53:11.525Z,101210.72
2022-08-23T02:55:39.245Z,101210.63
2022-08-23T02:58:07.031Z,101205.59
2022-08-23T03:00:34.754Z,101209.34
2022-08-23T03:03:04.430Z,101209.44
2022-08-23T03:05:33.818Z,101208.91
2022-08-23T03:08:03.075Z,101208.69
2022-08-23T03:10:31.079Z,101205.81
2022-08-23T03:12:58.888Z,101212.78
2022-08-23T03:15:26.705Z,101214.00
2022-08-23T03:17:54.448Z,101215.25
2022-08-23T03:20:22.551Z,101218.97
2022-08-23T03:22:54.757Z,101218.00
2022-08-23T03:25:22.935Z,101214.94
2022-08-23T03:27:50.736Z,101221.00
2022-08-23T03:30:19.928Z,101231.75
2022-08-23T03:32:49.180Z,101229.66
2022-08-23T03:35:17.521Z,101233.38
2022-08-23T03:37:45.244Z,101243.00
2022-08-23T03:40:14.612Z,101247.88
2022-08-23T03:42:42.360Z,101246.28
2022-08-23T03:45:10.893Z,101238.34
2022-08-23T03:47:39.167Z,101242.81
2022-08-23T03:50:07.818Z,101236.31
2022-08-23T03:52:35.536Z,101237.88
2022-08-23T03:55:03.248Z,101249.81
2022-08-23T03:57:32.325Z,101254.59
2022-08-23T04:00:00.496Z,101256.78
2022-08-23T04:02:28.472Z,101253.88
2022-08-23T04:04:57.888Z,101246.44
2022-08-23T04:07:25.734Z,101249.50
2022-08-23T04:09:55.299Z,101251.53
2022-08-23T04:12:23.343Z,101252.34
2022-08-23T04:14:53.378Z,101251.94
2022-08-23T04:17:21.536Z,101257.63
2022-08-23T04:19:49.376Z,101260.75
2022-08-23T04:22:19.376Z,101256.47
2022-08-23T04:24:47.920Z,101249.53
2022-08-23T04:27:15.722Z,101264.44
2022-08-23T04:29:43.452Z,101267.00
2022-08-23T04:32:12.717Z,101273.50
2022-08-23T04:34:42.241Z,101260.75
2022-08-23T04:37:13.626Z,101265.47
2022-08-23T04:40:00.986Z,101276.75
2022-08-23T04:42:32.172Z,101281.81
2022-08-23T04:45:01.135Z,101282.41
2022-08-23T04:47:34.732Z,101291.75
2022-08-23T04:50:04.154Z,101292.03
2022-08-23T04:52:31.916Z,101295.63
2022-08-23T04:54:59.686Z,101282.13
2022-08-23T04:57:27.400Z,101285.19
2022-08-23T04:59:55.157Z,101280.59
2022-08-23T05:02:22.899Z,101285.84
2022-08-23T05:04:51.950Z,101287.50
2022-08-23T05:07:19.639Z,101295.34
2022-08-23T05:09:59.621Z,101290.06
2022-08-23T05:12:28.113Z,101299.91
2022-08-23T05:14:55.796Z,101297.66
2022-08-23T05:17:23.544Z,101296.56
2022-08-23T05:19:52.713Z,101301.84
2022-08-23T05:22:20.514Z,101300.44
2022-08-23T05:24:48.239Z,101294.16
2022-08-23T05:27:15.970Z,101301.59
2022-08-23T05:29:43.665Z,101306.16
2022-08-23T05:32:11.598Z,101307.78
2022-08-23T05:34:39.384Z,101307.03
2022-08-23T05:37:08.465Z,101308.41
2022-08-23T05:39:37.346Z,101308.19
2022-08-23T05:42:05.588Z,101305.69
2022-08-23T05:44:36.398Z,101314.19
2022-08-23T05:47:10.780Z,101314.25
2022-08-23T05:49:39.569Z,101314.22
2022-08-23T05:52:11.595Z,101321.13
2022-08-23T05:54:39.786Z,101330.72
2022-08-23T05:57:07.585Z,101328.78
2022-08-23T05:59:35.485Z,101336.91
2022-08-23T06:02:04.586Z,101339.03
2022-08-23T06:04:32.911Z,101334.47
2022-08-23T06:07:00.656Z,101332.09
2022-08-23T06:09:29.741Z,101326.69
2022-08-23T06:11:58.589Z,101346.00
2022-08-23T06:14:26.420Z,101333.72
2022-08-23T06:16:56.201Z,101339.75
2022-08-23T06:19:24.820Z,101346.22
2022-08-23T06:21:53.099Z,101344.25
2022-08-23T06:24:21.572Z,101344.38
2022-08-23T06:26:50.649Z,101340.28
2022-08-23T06:29:19.937Z,101338.78
2022-08-23T06:31:49.979Z,101346.38
2022-08-23T06:34:21.128Z,101350.72
2022-08-23T06:36:49.643Z,101348.03
2022-08-23T06:39:18.805Z,101351.28
2022-08-23T06:41:48.442Z,101359.28
2022-08-23T06:44:18.440Z,101350.50
2022-08-23T06:46:47.851Z,101348.50
2022-08-23T06:49:16.132Z,101355.94
2022-08-23T06:51:46.762Z,101355.59
2022-08-23T06:54:16.240Z,101354.81
2022-08-23T06:56:44.616Z,101354.13
2022-08-23T06:59:12.385Z,101359.41
2022-08-23T07:01:46.225Z,101358.03
2022-08-23T07:04:17.415Z,101363.78
2022-08-23T07:06:45.455Z,101359.91
2022-08-23T07:09:13.476Z,101361.13
2022-08-23T07:11:41.862Z,101357.25
2022-08-23T07:14:12.219Z,101354.72
2022-08-23T07:16:44.903Z,101354.66
2022-08-23T07:19:13.728Z,101363.53
2022-08-23T07:21:41.891Z,101354.56
2022-08-23T07:24:10.055Z,101360.19
2022-08-23T07:26:39.143Z,101366.69
2022-08-23T07:29:07.277Z,101365.25
2022-08-23T07:31:36.723Z,101366.81
2022-08-23T07:34:06.746Z,101373.84
2022-08-23T07:36:35.975Z,101372.41
2022-08-23T07:39:05.408Z,101371.19
2022-08-23T07:41:33.285Z,101373.84
2022-08-23T07:44:04.410Z,101368.34
2022-08-23T07:46:33.635Z,101367.41
2022-08-23T07:49:04.301Z,101373.06
2022-08-23T07:51:34.720Z,101361.50
2022-08-23T07:54:03.482Z,101370.19
2022-08-23T07:59:03.560Z,101367.34
2022-08-23T08:01:31.747Z,101360.47
2022-08-23T08:04:03.540Z,101363.13
2022-08-23T08:06:34.997Z,101361.78
2022-08-23T08:09:05.936Z,101367.06
2022-08-23T08:11:35.706Z,101368.50
2022-08-23T08:14:05.365Z,101364.66
2022-08-23T08:16:36.204Z,101361.97
2022-08-23T08:19:08.014Z,101361.44
2022-08-23T08:21:39.721Z,101359.06
2022-08-23T08:24:12.820Z,101364.63
2022-08-23T08:26:40.977Z,101366.63
2022-08-23T08:29:11.856Z,101365.88
2022-08-23T08:31:40.712Z,101368.81
2022-08-23T08:34:08.725Z,101362.34
2022-08-23T08:36:39.854Z,101361.91
2022-08-23T08:39:10.441Z,101360.00
2022-08-23T08:41:51.206Z,101368.88
2022-08-23T08:44:40.293Z,101371.00
2022-08-23T08:47:11.248Z,101364.69
2022-08-23T08:49:41.473Z,101362.91
2022-08-23T08:52:16.399Z,101365.69
2022-08-23T08:54:48.299Z,101369.84
2022-08-23T08:57:24.544Z,101375.41
2022-08-23T08:59:57.692Z,101372.88
2022-08-23T09:02:33.119Z,101374.66
2022-08-23T09:05:03.111Z,101371.38
2022-08-23T09:07:42.116Z,101375.47
2022-08-23T09:10:31.622Z,101370.78
2022-08-23T09:13:12.050Z,101382.44
2022-08-23T09:15:42.770Z,101376.47
2022-08-23T09:18:13.531Z,101382.94
2022-08-23T09:20:43.329Z,101379.03
2022-08-23T09:23:15.653Z,101375.47
2022-08-23T09:25:52.633Z,101375.97
2022-08-23T09:28:20.427Z,101386.16
2022-08-23T09:30:51.261Z,101380.81
2022-08-23T09:33:21.435Z,101377.22
2022-08-23T09:36:06.449Z,101378.06
2022-08-23T09:38:35.636Z,101384.03
2022-08-23T09:41:19.809Z,101377.56
2022-08-23T09:43:49.840Z,101378.53
2022-08-23T09:46:26.727Z,101376.44
2022-08-23T09:48:58.105Z,101360.50
2022-08-23T09:51:28.388Z,101364.41
2022-08-23T09:54:08.375Z,101363.38
2022-08-23T09:56:39.899Z,101361.16
2022-08-23T09:59:22.236Z,101354.81
2022-08-23T10:01:56.371Z,101359.09
2022-08-23T10:04:26.346Z,101358.66
2022-08-23T10:06:54.122Z,101355.72
2022-08-23T10:09:28.666Z,101348.84
2022-08-23T10:11:57.585Z,101344.38
2022-08-23T10:14:30.054Z,101342.53
2022-08-23T10:17:04.849Z,101347.41
2022-08-23T10:19:41.650Z,101344.00
2022-08-23T10:22:16.349Z,101344.81
2022-08-23T10:24:49.668Z,101348.91
2022-08-23T10:27:45.287Z,101338.56
2022-08-23T10:30:14.593Z,101339.03
2022-08-23T10:33:02.564Z,101323.78
2022-08-23T10:35:38.468Z,101326.38
2022-08-23T10:38:32.710Z,101327.28
2022-08-23T10:41:05.045Z,101325.28
2022-08-23T10:43:38.829Z,101321.72
2022-08-23T10:46:08.437Z,101320.94
2022-08-23T10:48:40.600Z,101312.84
2022-08-23T10:51:13.033Z,101316.06
2022-08-23T10:53:46.646Z,101321.56
2022-08-23T10:56:19.157Z,101319.75
2022-08-23T10:58:49.431Z,101306.91
2022-08-23T11:01:21.776Z,101309.88
2022-08-23T11:03:58.069Z,101317.78
2022-08-23T11:06:47.899Z,101312.94
2022-08-23T11:09:38.719Z,101309.84
2022-08-23T11:12:27.387Z,101309.97
2022-08-23T11:15:11.184Z,101309.00
2022-08-23T11:17:44.833Z,101309.03
2022-08-23T11:20:14.961Z,101310.72
2022-08-23T11:23:16.261Z,101305.97
2022-08-23T11:25:45.853Z,101304.88
2022-08-23T11:28:40.226Z,101301.41
2022-08-23T11:31:22.558Z,101303.91
2022-08-23T11:33:52.997Z,101305.34
2022-08-23T11:36:23.744Z,101306.56
2022-08-23T11:39:07.881Z,101303.19
2022-08-23T11:41:36.588Z,101309.47
2022-08-23T11:44:24.553Z,101304.59
2022-08-23T11:47:00.072Z,101300.78
2022-08-23T11:50:01.315Z,101294.09
2022-08-23T11:52:47.316Z,101303.13
2022-08-23T11:55:25.106Z,101304.13
2022-08-23T11:58:02.821Z,101306.56
2022-08-23T12:00:54.305Z,101298.38
2022-08-23T12:03:25.562Z,101302.28
2022-08-23T12:06:16.007Z,101303.03
2022-08-23T12:08:50.857Z,101298.53
2022-08-23T12:11:19.899Z,101308.38
2022-08-23T12:14:02.565Z,101305.75
2022-08-23T12:16:38.648Z,101307.25
2022-08-23T12:19:22.192Z,101301.06
2022-08-23T12:21:55.860Z,101301.63
2022-08-23T12:24:26.700Z,101310.72
2022-08-23T12:27:01.568Z,101293.94
2022-08-23T12:29:36.193Z,101300.38
2022-08-23T12:32:11.232Z,101291.03
2022-08-23T12:34:47.473Z,101298.88
2022-08-23T12:37:23.030Z,101281.72
2022-08-23T12:39:52.847Z,101289.44
2022-08-23T12:42:27.027Z,101288.53
2022-08-23T12:45:05.247Z,101282.19
2022-08-23T12:47:38.466Z,101280.31
2022-08-23T12:50:20.353Z,101277.22
2022-08-23T12:52:58.111Z,101280.56
2022-08-23T12:55:31.760Z,101277.78
2022-08-23T12:58:00.145Z,101280.00
2022-08-23T13:00:31.406Z,101272.84
2022-08-23T13:03:03.513Z,101268.72
2022-08-23T13:05:37.179Z,101280.56
2022-08-23T13:08:08.918Z,101278.28
2022-08-23T13:10:39.221Z,101275.88
2022-08-23T13:13:11.533Z,101267.91
2022-08-23T13:15:46.327Z,101271.16
2022-08-23T13:18:26.230Z,101271.00
2022-08-23T13:21:18.443Z,101265.47
2022-08-23T13:23:47.865Z,101267.34
2022-08-23T13:26:37.758Z,101258.69
2022-08-23T13:29:12.430Z,101255.47
2022-08-23T13:31:56.362Z,101255.59
2022-08-23T13:34:36.917Z,101255.47
2022-08-23T13:37:17.853Z,101256.19
2022-08-23T13:39:47.896Z,101253.66
2022-08-23T13:42:15.917Z,101261.47
2022-08-23T13:44:44.371Z,101261.72
2022-08-23T13:47:23.317Z,101252.47
2022-08-23T13:49:52.749Z,101251.81
2022-08-23T13:55:08.507Z,101249.16
2022-08-23T13:57:40.128Z,101252.47
2022-08-23T14:00:10.802Z,101250.06
2022-08-23T14:02:39.264Z,101254.78
2022-08-23T14:05:09.598Z,101248.66
2022-08-23T14:07:37.458Z,101253.16
2022-08-23T14:10:05.910Z,101252.16
2022-08-23T14:12:35.049Z,101246.94
2022-08-23T14:15:03.513Z,101255.13
2022-08-23T14:17:32.842Z,101251.34
2022-08-23T14:22:52.356Z,101247.19
2022-08-23T14:25:20.421Z,101246.03
2022-08-23T14:27:49.358Z,101239.25
2022-08-23T14:30:24.693Z,101246.72
2022-08-23T14:32:58.028Z,101244.53
2022-08-23T14:35:25.787Z,101243.94
2022-08-23T14:38:03.814Z,101236.25
2022-08-23T14:40:31.957Z,101248.22
2022-08-23T14:42:59.768Z,101244.88
2022-08-23T14:45:27.680Z,101232.66
2022-08-23T14:47:55.448Z,101239.00
2022-08-23T14:50:23.431Z,101236.09
2022-08-23T14:52:51.202Z,101240.25
2022-08-23T14:55:24.735Z,101236.47
2022-08-23T14:57:52.787Z,101232.41
2022-08-23T15:00:21.034Z,101230.94
2022-08-23T15:02:50.063Z,101230.81
2022-08-23T15:05:18.107Z,101228.28
2022-08-23T15:07:46.011Z,101232.19
2022-08-23T15:13:27.391Z,101228.47
2022-08-23T15:15:53.020Z,101222.50
2022-08-23T15:18:21.756Z,101222.28
2022-08-23T15:20:49.489Z,101224.09
2022-08-23T15:23:21.032Z,101220.28
2022-08-23T15:25:49.956Z,101227.75
2022-08-23T15:28:20.937Z,101230.66
2022-08-23T15:30:50.038Z,101220.50
2022-08-23T15:33:18.660Z,101226.72
2022-08-23T15:35:51.661Z,101228.34
2022-08-23T15:38:20.313Z,101226.97
2022-08-23T15:40:49.704Z,101231.28
2022-08-23T15:43:19.017Z,101229.88
2022-08-23T15:45:46.881Z,101222.50
2022-08-23T15:48:17.818Z,101225.59
2022-08-23T15:50:47.634Z,101221.53
2022-08-23T15:53:15.827Z,101224.00
2022-08-23T15:55:45.068Z,101220.41
2022-08-23T15:58:15.663Z,101219.94
2022-08-23T16:00:45.085Z,101224.00
2022-08-23T16:03:19.044Z,101218.56
2022-08-23T16:05:49.888Z,101215.66
2022-08-23T16:08:20.804Z,101213.94
2022-08-23T16:10:48.564Z,101214.69
2022-08-23T16:13:16.283Z,101221.38
2022-08-23T16:15:45.488Z,101215.69
2022-08-23T16:18:13.816Z,101211.00
2022-08-23T16:20:41.888Z,101216.28
2022-08-23T16:23:09.772Z,101216.53
2022-08-23T16:25:37.897Z,101221.63
2022-08-23T16:28:07.888Z,101222.06
2022-08-23T16:30:36.881Z,101214.78
2022-08-23T16:33:06.664Z,101215.47
2022-08-23T16:35:34.366Z,101218.22
2022-08-23T16:38:02.221Z,101219.97
2022-08-23T16:40:30.138Z,101218.13
2022-08-23T16:42:58.163Z,101221.59
2022-08-23T16:45:26.490Z,101218.94
2022-08-23T16:47:54.856Z,101223.66
2022-08-23T16:50:23.961Z,101224.81
2022-08-23T16:52:51.692Z,101224.16
2022-08-23T16:55:19.611Z,101221.16
2022-08-23T16:57:47.888Z,101218.13
2022-08-23T17:00:16.144Z,101228.03
2022-08-23T17:02:44.173Z,101224.03
2022-08-23T17:05:15.276Z,101226.69
2022-08-23T17:07:44.535Z,101222.66
2022-08-23T17:10:14.243Z,101223.09
2022-08-23T17:12:46.975Z,101227.81
2022-08-23T17:15:18.880Z,101225.25
2022-08-23T17:17:48.680Z,101233.13
2022-08-23T17:20:16.983Z,101242.56
2022-08-23T17:22:46.108Z,101234.72
2022-08-23T17:25:15.366Z,101241.97
2022-08-23T17:27:46.203Z,101245.31
2022-08-23T17:30:16.966Z,101248.09
2022-08-23T17:32:44.981Z,101247.53
2022-08-23T17:35:15.049Z,101246.25
2022-08-23T17:37:43.659Z,101251.09
2022-08-23T17:40:16.270Z,101251.31
2022-08-23T17:42:49.715Z,101263.53
2022-08-23T17:45:19.027Z,101262.59
2022-08-23T17:47:47.369Z,101257.06
2022-08-23T17:50:15.554Z,101264.41
2022-08-23T17:52:43.296Z,101267.41
2022-08-23T17:55:11.040Z,101270.69
2022-08-23T17:57:41.637Z,101267.22
2022-08-23T18:00:11.333Z,101266.34
2022-08-23T18:02:39.112Z,101272.84
2022-08-23T18:05:07.836Z,101279.16
2022-08-23T18:07:35.595Z,101276.53
2022-08-23T18:10:07.012Z,101277.22
2022-08-23T18:12:35.069Z,101283.47
2022-08-23T18:15:07.363Z,101284.47
2022-08-23T18:17:35.752Z,101294.03
2022-08-23T18:20:08.148Z,101293.38
2022-08-23T18:22:37.383Z,101286.53
2022-08-23T18:25:05.613Z,101290.22
2022-08-23T18:27:51.084Z,101299.44
2022-08-23T18:30:20.222Z,101295.53
2022-08-23T18:32:47.997Z,101295.25
2022-08-23T18:35:15.785Z,101303.31
2022-08-23T18:37:44.260Z,101301.28
2022-08-23T18:40:12.989Z,101309.66
2022-08-23T18:42:41.292Z,101311.94
2022-08-23T18:45:10.189Z,101309.91
2022-08-23T18:47:39.636Z,101314.34
2022-08-23T18:50:09.512Z,101315.34
2022-08-23T18:52:37.374Z,101325.94
2022-08-23T18:55:06.228Z,101330.81
2022-08-23T18:57:34.108Z,101326.66
2022-08-23T19:00:03.028Z,101339.22
2022-08-23T19:02:30.864Z,101340.00
2022-08-23T19:04:59.972Z,101339.44
2022-08-23T19:07:27.665Z,101338.66
2022-08-23T19:09:55.366Z,101337.28
2022-08-23T19:12:23.151Z,101342.56
2022-08-23T19:14:50.915Z,101347.16
2022-08-23T19:17:18.605Z,101352.94
2022-08-23T19:19:46.292Z,101353.94
2022-08-23T19:22:15.457Z,101352.19
2022-08-23T19:24:43.324Z,101354.03
2022-08-23T19:27:11.045Z,101364.56
2022-08-23T19:29:38.779Z,101365.19
2022-08-23T19:32:06.861Z,101364.34
2022-08-23T19:34:35.528Z,101369.19
2022-08-23T19:37:04.999Z,101369.66
2022-08-23T19:39:39.940Z,101374.66
2022-08-23T19:42:11.575Z,101377.78
2022-08-23T19:44:39.709Z,101386.44
2022-08-23T19:47:08.317Z,101379.47
2022-08-23T19:49:48.361Z,101386.97
2022-08-23T19:52:16.254Z,101384.00
2022-08-23T19:54:45.325Z,101389.00
2022-08-23T19:57:13.380Z,101386.69
2022-08-23T19:59:41.240Z,101397.19
2022-08-23T20:02:10.311Z,101389.25
2022-08-23T20:04:38.132Z,101389.13
2022-08-23T20:07:05.925Z,101397.34
2022-08-23T20:09:34.710Z,101403.56
2022-08-23T20:12:04.313Z,101402.06
2022-08-23T20:14:34.000Z,101406.28
2022-08-23T20:17:07.180Z,101404.50
2022-08-23T20:19:35.481Z,101409.03
2022-08-23T20:22:18.063Z,101410.16
2022-08-23T20:24:52.401Z,101431.44
2022-08-23T20:27:24.108Z,101416.50
2022-08-23T20:29:59.672Z,101416.50
2022-08-23T20:32:27.604Z,101423.63
2022-08-23T20:34:55.347Z,101430.34
2022-08-23T20:37:23.104Z,101419.63
2022-08-23T20:39:52.141Z,101415.97
2022-08-23T20:42:20.053Z,101414.38
2022-08-23T20:44:49.259Z,101416.59
2022-08-23T20:47:17.183Z,101415.63
2022-08-23T20:49:45.105Z,101425.50
2022-08-23T20:52:16.564Z,101428.09
2022-08-23T20:54:44.856Z,101423.56
2022-08-23T20:57:12.711Z,101429.25
2022-08-23T20:59:44.454Z,101428.13
2022-08-23T21:02:16.026Z,101428.94
2022-08-23T21:04:43.796Z,101433.63
2022-08-23T21:07:14.857Z,101432.84
2022-08-23T21:09:42.568Z,101430.56
2022-08-23T21:12:10.327Z,101427.63
2022-08-23T21:14:38.040Z,101433.31
2022-08-23T21:17:07.481Z,101432.19
2022-08-23T21:19:37.948Z,101438.97
2022-08-23T21:22:05.784Z,101441.06
2022-08-23T21:24:33.893Z,101433.44
2022-08-23T21:27:03.233Z,101427.78
2022-08-23T21:29:38.444Z,101431.16
2022-08-23T21:32:08.089Z,101432.34
2022-08-23T21:34:37.153Z,101435.09
2022-08-23T21:37:07.252Z,101432.66
2022-08-23T21:39:35.189Z,101426.50
2022-08-23T21:42:05.961Z,101427.47
2022-08-23T21:44:43.685Z,101425.53
2022-08-23T21:47:11.487Z,101425.97
2022-08-23T21:49:40.847Z,101431.19
2022-08-23T21:52:08.536Z,101430.53
2022-08-23T21:54:39.173Z,101424.56
2022-08-23T21:57:09.305Z,101426.66
2022-08-23T21:59:37.488Z,101424.72
2022-08-23T22:02:05.795Z,101425.41
2022-08-23T22:04:33.713Z,101429.69
2022-08-23T22:07:04.053Z,101423.53
2022-08-23T22:09:32.072Z,101422.22
2022-08-23T22:12:02.973Z,101414.22
2022-08-23T22:14:31.939Z,101416.81
2022-08-23T22:16:59.960Z,101413.63
2022-08-23T22:19:28.737Z,101405.06
2022-08-23T22:21:56.516Z,101417.84
2022-08-23T22:24:26.428Z,101418.16
2022-08-23T22:26:56.316Z,101415.59
2022-08-23T22:29:24.327Z,101422.69
2022-08-23T22:31:52.091Z,101424.38
2022-08-23T22:34:19.813Z,101425.38
2022-08-23T22:36:52.174Z,101428.41
2022-08-23T22:39:20.919Z,101429.34
2022-08-23T22:41:50.676Z,101429.63
2022-08-23T22:44:19.301Z,101433.41
2022-08-23T22:46:47.167Z,101430.47
2022-08-23T22:49:14.963Z,101433.69
2022-08-23T22:51:43.567Z,101430.41
2022-08-23T22:54:12.288Z,101434.50
2022-08-23T22:56:42.419Z,101434.38
2022-08-23T22:59:11.842Z,101444.50
2022-08-23T23:01:41.892Z,101431.75
2022-08-23T23:04:13.928Z,101437.47
2022-08-23T23:06:42.287Z,101442.97
2022-08-23T23:09:12.809Z,101440.41
2022-08-23T23:11:41.166Z,101435.06
2022-08-23T23:14:11.564Z,101436.19
2022-08-23T23:16:39.921Z,101442.84
2022-08-23T23:19:25.728Z,101444.94
2022-08-23T23:21:55.712Z,101436.97
2022-08-23T23:24:25.689Z,101436.44
2022-08-23T23:26:53.941Z,101440.31
2022-08-23T23:29:23.128Z,101444.97
2022-08-23T23:31:51.088Z,101445.97
2022-08-23T23:34:18.827Z,101450.13
2022-08-23T23:36:46.796Z,101457.78
2022-08-23T23:39:15.848Z,101456.63
2022-08-23T23:41:44.171Z,101461.16
2022-08-23T23:44:11.945Z,101461.47
2022-08-23T23:46:43.403Z,101464.53
2022-08-23T23:49:13.089Z,101461.00
2022-08-23T23:51:41.463Z,101461.16
2022-08-23T23:54:09.216Z,101458.88
2022-08-23T23:56:36.932Z,101456.22
2022-08-23T23:59:04.865Z,101454.44
